Terminal Aerodrome Forecast
Issued by NWS Missoula, MT

Current Version | Previous Version | Text Only | Print | Product List | Glossary On
Versions: 1 2 3 4 5 6 7 8 9 10 11 12 13 14 15
000
FTUS45 KMSO 281121
TAFBTM
TAF
KBTM 281121Z 2812/2912 26010KT P6SM FEW080
     FM281700 29025G35KT P6SM BKN050
     FM290300 31010KT P6SM SKC=

USA.gov is the U.S. government's official web portal to all federal, state and local government web resources and services.